sensor_id;sensor_type;location;lat;lon;timestamp;P1;durP1;ratioP1;P2;durP2;ratioP2
37633;SDS011;32048;49.902;22.508;2023-02-28T00:01:12;57.73;;;26.23;;
37633;SDS011;32048;49.902;22.508;2023-02-28T00:03:41;62.72;;;23.90;;
37633;SDS011;32048;49.902;22.508;2023-02-28T00:06:08;61.47;;;22.10;;
37633;SDS011;32048;49.902;22.508;2023-02-28T00:08:36;52.15;;;21.42;;
37633;SDS011;32048;49.902;22.508;2023-02-28T00:11:05;58.17;;;24.73;;
37633;SDS011;32048;49.902;22.508;2023-02-28T00:13:34;53.93;;;22.23;;
37633;SDS011;32048;49.902;22.508;2023-02-28T00:16:04;74.30;;;28.60;;
37633;SDS011;32048;49.902;22.508;2023-02-28T00:18:33;67.20;;;27.27;;
37633;SDS011;32048;49.902;22.508;2023-02-28T00:21:00;80.37;;;32.87;;
37633;SDS011;32048;49.902;22.508;2023-02-28T00:23:28;85.47;;;32.53;;
37633;SDS011;32048;49.902;22.508;2023-02-28T00:25:55;70.30;;;27.67;;
37633;SDS011;32048;49.902;22.508;2023-02-28T00:28:22;76.23;;;23.23;;
37633;SDS011;32048;49.902;22.508;2023-02-28T00:30:49;52.10;;;23.23;;
37633;SDS011;32048;49.902;22.508;2023-02-28T00:33:17;46.50;;;19.57;;
37633;SDS011;32048;49.902;22.508;2023-02-28T00:35:44;44.47;;;20.33;;
37633;SDS011;32048;49.902;22.508;2023-02-28T00:38:13;41.33;;;16.87;;
37633;SDS011;32048;49.902;22.508;2023-02-28T00:40:41;52.37;;;21.47;;
37633;SDS011;32048;49.902;22.508;2023-02-28T00:43:08;51.80;;;22.33;;
37633;SDS011;32048;49.902;22.508;2023-02-28T00:45:35;62.03;;;24.20;;
37633;SDS011;32048;49.902;22.508;2023-02-28T00:48:02;61.97;;;26.23;;
37633;SDS011;32048;49.902;22.508;2023-02-28T00:50:30;60.33;;;24.33;;
37633;SDS011;32048;49.902;22.508;2023-02-28T00:52:57;54.47;;;23.67;;
37633;SDS011;32048;49.902;22.508;2023-02-28T00:55:24;65.23;;;28.57;;
37633;SDS011;32048;49.902;22.508;2023-02-28T00:57:51;63.23;;;26.47;;
37633;SDS011;32048;49.902;22.508;2023-02-28T01:00:18;63.87;;;25.70;;
37633;SDS011;32048;49.902;22.508;2023-02-28T01:02:46;45.37;;;22.47;;
37633;SDS011;32048;49.902;22.508;2023-02-28T01:05:13;47.27;;;22.37;;
37633;SDS011;32048;49.902;22.508;2023-02-28T01:07:40;52.80;;;23.80;;
37633;SDS011;32048;49.902;22.508;2023-02-28T01:10:08;56.33;;;21.83;;
37633;SDS011;32048;49.902;22.508;2023-02-28T01:12:35;59.20;;;24.30;;
37633;SDS011;32048;49.902;22.508;2023-02-28T01:15:02;50.97;;;23.80;;
37633;SDS011;32048;49.902;22.508;2023-02-28T01:17:30;55.15;;;22.88;;
37633;SDS011;32048;49.902;22.508;2023-02-28T01:19:57;57.17;;;23.83;;
37633;SDS011;32048;49.902;22.508;2023-02-28T01:22:24;52.27;;;23.50;;
37633;SDS011;32048;49.902;22.508;2023-02-28T01:24:51;58.77;;;22.77;;
37633;SDS011;32048;49.902;22.508;2023-02-28T01:27:19;64.63;;;25.87;;
37633;SDS011;32048;49.902;22.508;2023-02-28T01:29:46;63.83;;;25.27;;
37633;SDS011;32048;49.902;22.508;2023-02-28T01:32:13;61.57;;;27.03;;
37633;SDS011;32048;49.902;22.508;2023-02-28T01:34:40;50.70;;;20.23;;
37633;SDS011;32048;49.902;22.508;2023-02-28T01:37:08;56.33;;;27.50;;
37633;SDS011;32048;49.902;22.508;2023-02-28T01:39:34;54.30;;;23.23;;
37633;SDS011;32048;49.902;22.508;2023-02-28T01:42:02;49.03;;;21.93;;
37633;SDS011;32048;49.902;22.508;2023-02-28T01:47:28;44.87;;;18.70;;
37633;SDS011;32048;49.902;22.508;2023-02-28T01:49:58;54.87;;;20.37;;
37633;SDS011;32048;49.902;22.508;2023-02-28T01:52:27;46.67;;;19.80;;
37633;SDS011;32048;49.902;22.508;2023-02-28T01:54:55;44.22;;;20.67;;
37633;SDS011;32048;49.902;22.508;2023-02-28T01:57:28;54.37;;;22.07;;
37633;SDS011;32048;49.902;22.508;2023-02-28T02:00:08;43.28;;;19.23;;
37633;SDS011;32048;49.902;22.508;2023-02-28T02:02:41;40.60;;;18.97;;
37633;SDS011;32048;49.902;22.508;2023-02-28T02:05:11;53.93;;;22.67;;
37633;SDS011;32048;49.902;22.508;2023-02-28T02:07:41;56.33;;;20.90;;
37633;SDS011;32048;49.902;22.508;2023-02-28T02:13:24;54.17;;;22.20;;
37633;SDS011;32048;49.902;22.508;2023-02-28T02:18:52;48.03;;;20.97;;
37633;SDS011;32048;49.902;22.508;2023-02-28T02:32:27;57.67;;;23.83;;
37633;SDS011;32048;49.902;22.508;2023-02-28T02:40:14;49.33;;;22.43;;
37633;SDS011;32048;49.902;22.508;2023-02-28T02:43:02;53.00;;;23.50;;
37633;SDS011;32048;49.902;22.508;2023-02-28T02:48:13;56.17;;;24.23;;
37633;SDS011;32048;49.902;22.508;2023-02-28T02:51:06;54.77;;;22.57;;
37633;SDS011;32048;49.902;22.508;2023-02-28T02:53:40;70.83;;;29.50;;
37633;SDS011;32048;49.902;22.508;2023-02-28T02:56:13;55.40;;;25.17;;
37633;SDS011;32048;49.902;22.508;2023-02-28T02:58:43;43.77;;;20.03;;
37633;SDS011;32048;49.902;22.508;2023-02-28T03:01:14;45.60;;;20.83;;
37633;SDS011;32048;49.902;22.508;2023-02-28T03:03:55;57.17;;;24.23;;
37633;SDS011;32048;49.902;22.508;2023-02-28T03:06:25;44.50;;;17.57;;
37633;SDS011;32048;49.902;22.508;2023-02-28T03:08:52;42.25;;;18.00;;
37633;SDS011;32048;49.902;22.508;2023-02-28T03:11:20;38.60;;;18.25;;
37633;SDS011;32048;49.902;22.508;2023-02-28T03:30:04;39.28;;;16.70;;
37633;SDS011;32048;49.902;22.508;2023-02-28T03:35:33;55.33;;;23.57;;
37633;SDS011;32048;49.902;22.508;2023-02-28T03:38:25;58.83;;;24.77;;
37633;SDS011;32048;49.902;22.508;2023-02-28T03:41:05;48.77;;;23.17;;
37633;SDS011;32048;49.902;22.508;2023-02-28T03:43:40;51.00;;;22.53;;
37633;SDS011;32048;49.902;22.508;2023-02-28T03:46:16;40.50;;;18.30;;
37633;SDS011;32048;49.902;22.508;2023-02-28T03:48:49;42.93;;;18.37;;
37633;SDS011;32048;49.902;22.508;2023-02-28T03:51:21;46.10;;;19.07;;
37633;SDS011;32048;49.902;22.508;2023-02-28T03:53:53;41.13;;;15.83;;
37633;SDS011;32048;49.902;22.508;2023-02-28T03:56:32;36.23;;;16.20;;
37633;SDS011;32048;49.902;22.508;2023-02-28T03:59:14;38.10;;;17.53;;
37633;SDS011;32048;49.902;22.508;2023-02-28T04:01:50;37.70;;;16.57;;
37633;SDS011;32048;49.902;22.508;2023-02-28T04:04:18;38.08;;;18.60;;
37633;SDS011;32048;49.902;22.508;2023-02-28T04:06:45;40.90;;;17.87;;
37633;SDS011;32048;49.902;22.508;2023-02-28T04:09:17;32.43;;;15.13;;
37633;SDS011;32048;49.902;22.508;2023-02-28T04:11:49;37.97;;;17.60;;
37633;SDS011;32048;49.902;22.508;2023-02-28T04:14:22;33.13;;;14.88;;
37633;SDS011;32048;49.902;22.508;2023-02-28T04:16:49;33.70;;;15.17;;
37633;SDS011;32048;49.902;22.508;2023-02-28T04:19:17;29.13;;;15.30;;
37633;SDS011;32048;49.902;22.508;2023-02-28T04:21:48;32.20;;;15.60;;
37633;SDS011;32048;49.902;22.508;2023-02-28T04:24:21;33.17;;;15.17;;
37633;SDS011;32048;49.902;22.508;2023-02-28T04:26:50;36.83;;;17.50;;
37633;SDS011;32048;49.902;22.508;2023-02-28T04:29:23;51.70;;;23.57;;
37633;SDS011;32048;49.902;22.508;2023-02-28T04:31:52;56.47;;;26.57;;
37633;SDS011;32048;49.902;22.508;2023-02-28T04:34:20;66.47;;;34.63;;
37633;SDS011;32048;49.902;22.508;2023-02-28T04:36:48;67.40;;;32.10;;
37633;SDS011;32048;49.902;22.508;2023-02-28T04:39:37;77.23;;;37.13;;
37633;SDS011;32048;49.902;22.508;2023-02-28T04:42:04;56.97;;;30.70;;
37633;SDS011;32048;49.902;22.508;2023-02-28T04:44:31;64.63;;;33.23;;
37633;SDS011;32048;49.902;22.508;2023-02-28T04:46:58;60.87;;;30.07;;
37633;SDS011;32048;49.902;22.508;2023-02-28T04:49:26;51.63;;;22.07;;
37633;SDS011;32048;49.902;22.508;2023-02-28T04:51:53;54.40;;;23.60;;
37633;SDS011;32048;49.902;22.508;2023-02-28T04:54:20;60.63;;;25.70;;
37633;SDS011;32048;49.902;22.508;2023-02-28T04:56:47;58.93;;;27.80;;
37633;SDS011;32048;49.902;22.508;2023-02-28T04:59:17;59.23;;;26.40;;
37633;SDS011;32048;49.902;22.508;2023-02-28T05:01:47;69.90;;;28.67;;
37633;SDS011;32048;49.902;22.508;2023-02-28T05:04:15;61.90;;;29.07;;
37633;SDS011;32048;49.902;22.508;2023-02-28T05:06:43;95.60;;;38.42;;
37633;SDS011;32048;49.902;22.508;2023-02-28T05:09:12;111.10;;;43.60;;
37633;SDS011;32048;49.902;22.508;2023-02-28T05:11:40;115.32;;;43.22;;
37633;SDS011;32048;49.902;22.508;2023-02-28T05:14:12;96.43;;;36.95;;
37633;SDS011;32048;49.902;22.508;2023-02-28T05:16:40;92.77;;;36.00;;
37633;SDS011;32048;49.902;22.508;2023-02-28T05:19:08;88.43;;;34.30;;
37633;SDS011;32048;49.902;22.508;2023-02-28T05:21:36;73.97;;;30.93;;
37633;SDS011;32048;49.902;22.508;2023-02-28T05:24:08;63.27;;;25.80;;
37633;SDS011;32048;49.902;22.508;2023-02-28T05:26:37;83.03;;;32.43;;
37633;SDS011;32048;49.902;22.508;2023-02-28T05:29:09;77.60;;;32.40;;
37633;SDS011;32048;49.902;22.508;2023-02-28T05:31:36;66.95;;;29.45;;
37633;SDS011;32048;49.902;22.508;2023-02-28T05:34:04;78.50;;;31.30;;
37633;SDS011;32048;49.902;22.508;2023-02-28T05:36:32;73.80;;;30.90;;
37633;SDS011;32048;49.902;22.508;2023-02-28T05:38:59;80.47;;;32.43;;
37633;SDS011;32048;49.902;22.508;2023-02-28T05:41:26;73.70;;;32.60;;
37633;SDS011;32048;49.902;22.508;2023-02-28T05:43:54;68.37;;;29.77;;
37633;SDS011;32048;49.902;22.508;2023-02-28T05:46:21;157.70;;;70.13;;
37633;SDS011;32048;49.902;22.508;2023-02-28T05:48:49;137.73;;;60.07;;
37633;SDS011;32048;49.902;22.508;2023-02-28T05:51:16;170.37;;;73.37;;
37633;SDS011;32048;49.902;22.508;2023-02-28T05:53:44;129.02;;;57.90;;
37633;SDS011;32048;49.902;22.508;2023-02-28T05:56:11;144.97;;;64.53;;
37633;SDS011;32048;49.902;22.508;2023-02-28T05:58:39;118.33;;;54.00;;
37633;SDS011;32048;49.902;22.508;2023-02-28T06:03:59;113.90;;;54.40;;
37633;SDS011;32048;49.902;22.508;2023-02-28T06:06:27;115.68;;;53.55;;
37633;SDS011;32048;49.902;22.508;2023-02-28T06:08:56;100.65;;;48.15;;
37633;SDS011;32048;49.902;22.508;2023-02-28T06:11:23;65.70;;;31.27;;
37633;SDS011;32048;49.902;22.508;2023-02-28T06:13:55;68.27;;;36.37;;
37633;SDS011;32048;49.902;22.508;2023-02-28T06:16:23;60.63;;;35.05;;
37633;SDS011;32048;49.902;22.508;2023-02-28T06:18:51;48.77;;;28.60;;
37633;SDS011;32048;49.902;22.508;2023-02-28T06:21:24;50.80;;;27.57;;
37633;SDS011;32048;49.902;22.508;2023-02-28T06:23:51;44.43;;;26.73;;
37633;SDS011;32048;49.902;22.508;2023-02-28T06:26:19;37.97;;;22.07;;
37633;SDS011;32048;49.902;22.508;2023-02-28T06:28:46;36.73;;;22.73;;
37633;SDS011;32048;49.902;22.508;2023-02-28T06:31:15;33.87;;;19.50;;
37633;SDS011;32048;49.902;22.508;2023-02-28T06:33:44;30.90;;;16.53;;
37633;SDS011;32048;49.902;22.508;2023-02-28T06:36:12;25.42;;;15.48;;
37633;SDS011;32048;49.902;22.508;2023-02-28T06:38:40;26.52;;;14.15;;
37633;SDS011;32048;49.902;22.508;2023-02-28T06:41:08;24.23;;;13.83;;
37633;SDS011;32048;49.902;22.508;2023-02-28T06:43:38;24.23;;;14.23;;
37633;SDS011;32048;49.902;22.508;2023-02-28T06:46:07;21.93;;;11.53;;
37633;SDS011;32048;49.902;22.508;2023-02-28T06:48:37;17.53;;;8.50;;
37633;SDS011;32048;49.902;22.508;2023-02-28T06:51:05;17.47;;;9.13;;
37633;SDS011;32048;49.902;22.508;2023-02-28T06:53:36;19.07;;;11.00;;
37633;SDS011;32048;49.902;22.508;2023-02-28T06:56:04;22.67;;;11.57;;
37633;SDS011;32048;49.902;22.508;2023-02-28T06:58:33;22.13;;;11.10;;
37633;SDS011;32048;49.902;22.508;2023-02-28T07:01:01;26.67;;;12.90;;
37633;SDS011;32048;49.902;22.508;2023-02-28T07:03:28;31.70;;;15.27;;
37633;SDS011;32048;49.902;22.508;2023-02-28T07:05:59;23.50;;;13.27;;
37633;SDS011;32048;49.902;22.508;2023-02-28T07:08:26;20.27;;;10.03;;
37633;SDS011;32048;49.902;22.508;2023-02-28T07:10:54;17.70;;;9.30;;
37633;SDS011;32048;49.902;22.508;2023-02-28T07:13:22;18.33;;;10.50;;
37633;SDS011;32048;49.902;22.508;2023-02-28T07:15:56;19.83;;;10.90;;
37633;SDS011;32048;49.902;22.508;2023-02-28T07:18:28;18.63;;;10.82;;
37633;SDS011;32048;49.902;22.508;2023-02-28T07:20:55;18.53;;;10.57;;
37633;SDS011;32048;49.902;22.508;2023-02-28T07:23:23;21.13;;;10.30;;
37633;SDS011;32048;49.902;22.508;2023-02-28T07:25:50;18.63;;;8.43;;
37633;SDS011;32048;49.902;22.508;2023-02-28T07:28:18;15.73;;;9.90;;
37633;SDS011;32048;49.902;22.508;2023-02-28T07:30:45;14.90;;;8.87;;
37633;SDS011;32048;49.902;22.508;2023-02-28T07:33:12;16.67;;;9.30;;
37633;SDS011;32048;49.902;22.508;2023-02-28T07:35:40;16.53;;;9.20;;
37633;SDS011;32048;49.902;22.508;2023-02-28T07:38:08;17.27;;;9.73;;
37633;SDS011;32048;49.902;22.508;2023-02-28T07:40:35;15.80;;;8.80;;
37633;SDS011;32048;49.902;22.508;2023-02-28T07:43:03;16.93;;;9.93;;
37633;SDS011;32048;49.902;22.508;2023-02-28T07:45:30;17.67;;;9.38;;
37633;SDS011;32048;49.902;22.508;2023-02-28T07:48:01;15.73;;;7.73;;
37633;SDS011;32048;49.902;22.508;2023-02-28T07:50:28;22.58;;;11.82;;
37633;SDS011;32048;49.902;22.508;2023-02-28T07:52:58;17.30;;;9.77;;
37633;SDS011;32048;49.902;22.508;2023-02-28T07:55:25;16.00;;;8.82;;
37633;SDS011;32048;49.902;22.508;2023-02-28T07:57:53;15.10;;;9.03;;
37633;SDS011;32048;49.902;22.508;2023-02-28T08:00:21;14.97;;;7.40;;
37633;SDS011;32048;49.902;22.508;2023-02-28T08:02:48;14.17;;;7.47;;
37633;SDS011;32048;49.902;22.508;2023-02-28T08:05:16;13.40;;;7.03;;
37633;SDS011;32048;49.902;22.508;2023-02-28T08:07:48;14.90;;;7.97;;
37633;SDS011;32048;49.902;22.508;2023-02-28T08:10:16;15.32;;;9.15;;
37633;SDS011;32048;49.902;22.508;2023-02-28T08:12:43;17.17;;;8.77;;
37633;SDS011;32048;49.902;22.508;2023-02-28T08:15:10;15.80;;;7.97;;
37633;SDS011;32048;49.902;22.508;2023-02-28T08:17:37;14.97;;;7.23;;
37633;SDS011;32048;49.902;22.508;2023-02-28T08:20:04;16.77;;;7.50;;
37633;SDS011;32048;49.902;22.508;2023-02-28T08:22:32;20.40;;;9.03;;
37633;SDS011;32048;49.902;22.508;2023-02-28T08:24:59;12.20;;;7.57;;
37633;SDS011;32048;49.902;22.508;2023-02-28T08:27:26;13.47;;;6.83;;
37633;SDS011;32048;49.902;22.508;2023-02-28T08:29:53;14.50;;;7.37;;
37633;SDS011;32048;49.902;22.508;2023-02-28T08:32:20;13.47;;;6.30;;
37633;SDS011;32048;49.902;22.508;2023-02-28T08:34:56;11.60;;;7.43;;
37633;SDS011;32048;49.902;22.508;2023-02-28T08:37:23;12.53;;;6.80;;
37633;SDS011;32048;49.902;22.508;2023-02-28T08:39:51;14.53;;;8.50;;
37633;SDS011;32048;49.902;22.508;2023-02-28T08:42:22;15.03;;;7.47;;
37633;SDS011;32048;49.902;22.508;2023-02-28T08:44:49;12.77;;;6.83;;
37633;SDS011;32048;49.902;22.508;2023-02-28T08:47:16;12.33;;;6.43;;
37633;SDS011;32048;49.902;22.508;2023-02-28T08:49:43;20.67;;;9.37;;
37633;SDS011;32048;49.902;22.508;2023-02-28T08:52:10;13.00;;;7.20;;
37633;SDS011;32048;49.902;22.508;2023-02-28T08:54:37;16.03;;;7.43;;
37633;SDS011;32048;49.902;22.508;2023-02-28T08:57:04;12.17;;;6.80;;
37633;SDS011;32048;49.902;22.508;2023-02-28T08:59:31;13.63;;;7.63;;
37633;SDS011;32048;49.902;22.508;2023-02-28T09:01:59;16.73;;;8.03;;
37633;SDS011;32048;49.902;22.508;2023-02-28T09:04:26;11.33;;;6.80;;
37633;SDS011;32048;49.902;22.508;2023-02-28T09:06:53;14.87;;;7.03;;
37633;SDS011;32048;49.902;22.508;2023-02-28T09:09:20;14.27;;;7.37;;
37633;SDS011;32048;49.902;22.508;2023-02-28T09:11:47;18.37;;;8.40;;
37633;SDS011;32048;49.902;22.508;2023-02-28T09:14:14;10.73;;;6.30;;
37633;SDS011;32048;49.902;22.508;2023-02-28T09:16:41;12.93;;;6.73;;
37633;SDS011;32048;49.902;22.508;2023-02-28T09:19:10;11.37;;;6.53;;
37633;SDS011;32048;49.902;22.508;2023-02-28T09:21:38;26.57;;;9.17;;
37633;SDS011;32048;49.902;22.508;2023-02-28T09:24:06;55.47;;;28.17;;
37633;SDS011;32048;49.902;22.508;2023-02-28T09:26:33;42.50;;;18.60;;
37633;SDS011;32048;49.902;22.508;2023-02-28T09:29:12;13.00;;;6.93;;
37633;SDS011;32048;49.902;22.508;2023-02-28T09:31:41;29.05;;;15.23;;
37633;SDS011;32048;49.902;22.508;2023-02-28T09:34:08;12.53;;;7.63;;
37633;SDS011;32048;49.902;22.508;2023-02-28T09:36:35;36.17;;;18.63;;
37633;SDS011;32048;49.902;22.508;2023-02-28T09:39:11;13.30;;;7.30;;
37633;SDS011;32048;49.902;22.508;2023-02-28T09:41:45;39.40;;;15.77;;
37633;SDS011;32048;49.902;22.508;2023-02-28T09:47:13;12.80;;;6.03;;
37633;SDS011;32048;49.902;22.508;2023-02-28T09:49:50;11.53;;;6.23;;
37633;SDS011;32048;49.902;22.508;2023-02-28T09:52:19;12.53;;;7.40;;
37633;SDS011;32048;49.902;22.508;2023-02-28T09:54:54;17.83;;;8.70;;
37633;SDS011;32048;49.902;22.508;2023-02-28T10:05:34;12.50;;;7.50;;
37633;SDS011;32048;49.902;22.508;2023-02-28T10:08:19;9.50;;;5.83;;
37633;SDS011;32048;49.902;22.508;2023-02-28T10:10:53;14.97;;;6.77;;
37633;SDS011;32048;49.902;22.508;2023-02-28T10:13:32;15.83;;;8.97;;
37633;SDS011;32048;49.902;22.508;2023-02-28T10:16:10;12.43;;;6.13;;
37633;SDS011;32048;49.902;22.508;2023-02-28T10:19:03;11.47;;;5.97;;
37633;SDS011;32048;49.902;22.508;2023-02-28T10:21:42;14.13;;;7.53;;
37633;SDS011;32048;49.902;22.508;2023-02-28T10:27:12;12.17;;;6.77;;
37633;SDS011;32048;49.902;22.508;2023-02-28T10:29:45;11.40;;;6.67;;
37633;SDS011;32048;49.902;22.508;2023-02-28T10:32:15;15.67;;;9.13;;
37633;SDS011;32048;49.902;22.508;2023-02-28T10:34:49;12.37;;;6.83;;
37633;SDS011;32048;49.902;22.508;2023-02-28T10:37:32;11.40;;;6.73;;
37633;SDS011;32048;49.902;22.508;2023-02-28T10:40:05;15.10;;;7.77;;
37633;SDS011;32048;49.902;22.508;2023-02-28T10:42:58;13.47;;;8.00;;
37633;SDS011;32048;49.902;22.508;2023-02-28T10:45:29;16.40;;;8.10;;
37633;SDS011;32048;49.902;22.508;2023-02-28T10:48:03;15.17;;;6.67;;
37633;SDS011;32048;49.902;22.508;2023-02-28T10:55:43;15.37;;;8.40;;
37633;SDS011;32048;49.902;22.508;2023-02-28T10:58:23;17.43;;;7.83;;
37633;SDS011;32048;49.902;22.508;2023-02-28T11:00:52;13.83;;;7.13;;
37633;SDS011;32048;49.902;22.508;2023-02-28T11:03:29;16.67;;;8.40;;
37633;SDS011;32048;49.902;22.508;2023-02-28T11:06:04;14.97;;;7.13;;
37633;SDS011;32048;49.902;22.508;2023-02-28T11:08:33;14.40;;;8.13;;
37633;SDS011;32048;49.902;22.508;2023-02-28T11:11:03;17.17;;;8.60;;
37633;SDS011;32048;49.902;22.508;2023-02-28T11:13:34;117.03;;;51.97;;
37633;SDS011;32048;49.902;22.508;2023-02-28T11:16:05;20.47;;;10.27;;
37633;SDS011;32048;49.902;22.508;2023-02-28T11:18:54;56.90;;;24.60;;
37633;SDS011;32048;49.902;22.508;2023-02-28T11:24:04;137.80;;;45.63;;
37633;SDS011;32048;49.902;22.508;2023-02-28T11:26:44;122.53;;;53.40;;
37633;SDS011;32048;49.902;22.508;2023-02-28T11:34:35;34.90;;;16.60;;
37633;SDS011;32048;49.902;22.508;2023-02-28T11:37:05;15.57;;;8.80;;
37633;SDS011;32048;49.902;22.508;2023-02-28T11:39:38;15.27;;;9.10;;
37633;SDS011;32048;49.902;22.508;2023-02-28T11:50:40;16.93;;;7.80;;
37633;SDS011;32048;49.902;22.508;2023-02-28T11:53:23;14.13;;;7.57;;
37633;SDS011;32048;49.902;22.508;2023-02-28T12:28:56;16.17;;;9.30;;
37633;SDS011;32048;49.902;22.508;2023-02-28T12:31:33;19.57;;;7.87;;
37633;SDS011;32048;49.902;22.508;2023-02-28T12:34:10;17.03;;;8.60;;
37633;SDS011;32048;49.902;22.508;2023-02-28T12:36:42;13.77;;;7.83;;
37633;SDS011;32048;49.902;22.508;2023-02-28T12:39:14;16.30;;;8.13;;
37633;SDS011;32048;49.902;22.508;2023-02-28T12:42:03;15.40;;;8.30;;
37633;SDS011;32048;49.902;22.508;2023-02-28T12:44:40;14.37;;;7.13;;
37633;SDS011;32048;49.902;22.508;2023-02-28T12:47:14;57.38;;;19.80;;
37633;SDS011;32048;49.902;22.508;2023-02-28T12:49:49;137.10;;;41.13;;
37633;SDS011;32048;49.902;22.508;2023-02-28T12:52:41;103.23;;;27.53;;
37633;SDS011;32048;49.902;22.508;2023-02-28T13:00:35;41.13;;;15.33;;
37633;SDS011;32048;49.902;22.508;2023-02-28T13:11:51;26.67;;;12.00;;
37633;SDS011;32048;49.902;22.508;2023-02-28T13:14:30;13.63;;;7.80;;
37633;SDS011;32048;49.902;22.508;2023-02-28T13:19:38;18.00;;;9.73;;
37633;SDS011;32048;49.902;22.508;2023-02-28T13:24:53;45.00;;;20.47;;
37633;SDS011;32048;49.902;22.508;2023-02-28T13:29:52;19.60;;;11.07;;
37633;SDS011;32048;49.902;22.508;2023-02-28T13:39:56;16.87;;;9.30;;
37633;SDS011;32048;49.902;22.508;2023-02-28T13:47:40;20.27;;;9.23;;
37633;SDS011;32048;49.902;22.508;2023-02-28T14:03:58;22.50;;;12.67;;
37633;SDS011;32048;49.902;22.508;2023-02-28T14:06:38;20.87;;;10.17;;
37633;SDS011;32048;49.902;22.508;2023-02-28T14:09:17;16.50;;;8.83;;
37633;SDS011;32048;49.902;22.508;2023-02-28T14:11:50;17.43;;;9.23;;
37633;SDS011;32048;49.902;22.508;2023-02-28T14:17:03;18.90;;;10.83;;
37633;SDS011;32048;49.902;22.508;2023-02-28T14:19:34;19.77;;;11.23;;
37633;SDS011;32048;49.902;22.508;2023-02-28T14:22:09;18.77;;;10.00;;
37633;SDS011;32048;49.902;22.508;2023-02-28T14:36:21;20.70;;;10.33;;
37633;SDS011;32048;49.902;22.508;2023-02-28T14:38:55;21.43;;;11.23;;
37633;SDS011;32048;49.902;22.508;2023-02-28T14:41:31;25.17;;;12.20;;
37633;SDS011;32048;49.902;22.508;2023-02-28T14:44:18;18.03;;;8.83;;
37633;SDS011;32048;49.902;22.508;2023-02-28T14:46:50;24.87;;;10.90;;
37633;SDS011;32048;49.902;22.508;2023-02-28T14:49:23;37.93;;;15.67;;
37633;SDS011;32048;49.902;22.508;2023-02-28T14:52:05;25.40;;;10.40;;
37633;SDS011;32048;49.902;22.508;2023-02-28T14:54:39;29.93;;;11.13;;
37633;SDS011;32048;49.902;22.508;2023-02-28T14:57:20;33.73;;;13.53;;
37633;SDS011;32048;49.902;22.508;2023-02-28T14:59:58;17.90;;;9.40;;
37633;SDS011;32048;49.902;22.508;2023-02-28T15:02:42;27.13;;;11.27;;
37633;SDS011;32048;49.902;22.508;2023-02-28T15:07:43;19.17;;;10.33;;
37633;SDS011;32048;49.902;22.508;2023-02-28T15:12:51;45.07;;;17.27;;
37633;SDS011;32048;49.902;22.508;2023-02-28T15:15:19;63.50;;;25.83;;
37633;SDS011;32048;49.902;22.508;2023-02-28T15:18:01;35.77;;;19.30;;
37633;SDS011;32048;49.902;22.508;2023-02-28T15:20:32;91.63;;;39.90;;
37633;SDS011;32048;49.902;22.508;2023-02-28T15:23:00;41.95;;;19.65;;
37633;SDS011;32048;49.902;22.508;2023-02-28T15:25:28;30.40;;;14.77;;
37633;SDS011;32048;49.902;22.508;2023-02-28T15:27:56;36.97;;;20.20;;
37633;SDS011;32048;49.902;22.508;2023-02-28T15:30:28;26.20;;;15.68;;
37633;SDS011;32048;49.902;22.508;2023-02-28T15:35:45;24.92;;;13.20;;
37633;SDS011;32048;49.902;22.508;2023-02-28T15:38:15;24.70;;;13.80;;
37633;SDS011;32048;49.902;22.508;2023-02-28T15:40:46;25.60;;;12.23;;
37633;SDS011;32048;49.902;22.508;2023-02-28T15:45:56;18.87;;;10.30;;
37633;SDS011;32048;49.902;22.508;2023-02-28T15:56:29;22.50;;;12.40;;
37633;SDS011;32048;49.902;22.508;2023-02-28T15:59:04;29.20;;;16.23;;
37633;SDS011;32048;49.902;22.508;2023-02-28T16:01:34;30.77;;;16.00;;
37633;SDS011;32048;49.902;22.508;2023-02-28T16:04:04;37.23;;;17.23;;
37633;SDS011;32048;49.902;22.508;2023-02-28T16:09:15;43.10;;;22.37;;
37633;SDS011;32048;49.902;22.508;2023-02-28T16:11:44;42.50;;;22.63;;
37633;SDS011;32048;49.902;22.508;2023-02-28T16:14:24;37.83;;;20.77;;
37633;SDS011;32048;49.902;22.508;2023-02-28T16:17:03;45.30;;;24.70;;
37633;SDS011;32048;49.902;22.508;2023-02-28T16:19:35;44.70;;;22.33;;
37633;SDS011;32048;49.902;22.508;2023-02-28T16:22:02;33.40;;;16.70;;
37633;SDS011;32048;49.902;22.508;2023-02-28T16:24:29;68.87;;;32.00;;
37633;SDS011;32048;49.902;22.508;2023-02-28T16:26:56;68.90;;;31.30;;
37633;SDS011;32048;49.902;22.508;2023-02-28T16:29:27;94.50;;;38.07;;
37633;SDS011;32048;49.902;22.508;2023-02-28T16:31:58;105.67;;;43.07;;
37633;SDS011;32048;49.902;22.508;2023-02-28T16:34:26;81.38;;;35.90;;
37633;SDS011;32048;49.902;22.508;2023-02-28T16:36:54;96.60;;;38.27;;
37633;SDS011;32048;49.902;22.508;2023-02-28T16:39:21;92.63;;;37.33;;
37633;SDS011;32048;49.902;22.508;2023-02-28T16:41:48;104.27;;;42.00;;
37633;SDS011;32048;49.902;22.508;2023-02-28T16:44:27;97.60;;;45.28;;
37633;SDS011;32048;49.902;22.508;2023-02-28T16:46:56;120.90;;;50.50;;
37633;SDS011;32048;49.902;22.508;2023-02-28T16:49:23;218.47;;;99.67;;
37633;SDS011;32048;49.902;22.508;2023-02-28T16:51:50;254.10;;;105.33;;
37633;SDS011;32048;49.902;22.508;2023-02-28T16:54:17;267.67;;;115.90;;
37633;SDS011;32048;49.902;22.508;2023-02-28T16:56:46;295.70;;;122.47;;
37633;SDS011;32048;49.902;22.508;2023-02-28T16:59:15;218.20;;;93.20;;
37633;SDS011;32048;49.902;22.508;2023-02-28T17:01:46;225.30;;;94.50;;
37633;SDS011;32048;49.902;22.508;2023-02-28T17:04:13;238.70;;;101.43;;
37633;SDS011;32048;49.902;22.508;2023-02-28T17:06:42;204.90;;;86.85;;
37633;SDS011;32048;49.902;22.508;2023-02-28T17:09:20;127.43;;;55.13;;
37633;SDS011;32048;49.902;22.508;2023-02-28T17:11:56;167.80;;;69.40;;
37633;SDS011;32048;49.902;22.508;2023-02-28T17:14:23;282.03;;;115.70;;
37633;SDS011;32048;49.902;22.508;2023-02-28T17:16:50;313.73;;;126.00;;
37633;SDS011;32048;49.902;22.508;2023-02-28T17:19:17;309.97;;;149.60;;
37633;SDS011;32048;49.902;22.508;2023-02-28T17:21:45;263.70;;;116.63;;
37633;SDS011;32048;49.902;22.508;2023-02-28T17:24:12;248.07;;;106.43;;
37633;SDS011;32048;49.902;22.508;2023-02-28T17:26:56;215.23;;;95.33;;
37633;SDS011;32048;49.902;22.508;2023-02-28T17:29:22;189.43;;;84.23;;
37633;SDS011;32048;49.902;22.508;2023-02-28T17:31:51;183.48;;;82.32;;
37633;SDS011;32048;49.902;22.508;2023-02-28T17:34:18;209.73;;;104.13;;
37633;SDS011;32048;49.902;22.508;2023-02-28T17:36:47;195.60;;;86.67;;
37633;SDS011;32048;49.902;22.508;2023-02-28T17:39:18;185.40;;;82.53;;
37633;SDS011;32048;49.902;22.508;2023-02-28T17:41:53;244.47;;;92.77;;
37633;SDS011;32048;49.902;22.508;2023-02-28T17:44:21;165.40;;;70.30;;
37633;SDS011;32048;49.902;22.508;2023-02-28T17:46:51;189.07;;;80.40;;
37633;SDS011;32048;49.902;22.508;2023-02-28T17:49:20;202.77;;;85.03;;
37633;SDS011;32048;49.902;22.508;2023-02-28T17:51:48;201.40;;;84.77;;
37633;SDS011;32048;49.902;22.508;2023-02-28T17:54:15;225.07;;;87.73;;